createdAt,value
2023-01-06T00:01:17.082Z,7.70
2023-01-06T00:03:51.279Z,7.70
2023-01-06T00:06:23.039Z,7.80
2023-01-06T00:08:51.498Z,7.80
2023-01-06T00:11:19.976Z,7.80
2023-01-06T00:13:48.690Z,7.80
2023-01-06T00:16:19.457Z,7.90
2023-01-06T00:18:49.333Z,7.90
2023-01-06T00:21:18.061Z,7.90
2023-01-06T00:23:46.831Z,7.90
2023-01-06T00:26:15.277Z,7.90
2023-01-06T00:28:43.846Z,7.90
2023-01-06T00:31:14.028Z,7.90
2023-01-06T00:33:43.042Z,7.90
2023-01-06T00:36:14.085Z,7.90
2023-01-06T00:38:42.862Z,7.90
2023-01-06T00:41:28.043Z,7.90
2023-01-06T00:43:57.013Z,7.90
2023-01-06T00:46:29.391Z,7.90
2023-01-06T00:49:07.124Z,8.00
2023-01-06T00:51:39.296Z,8.00
2023-01-06T00:54:08.831Z,8.00
2023-01-06T00:56:38.675Z,8.00
2023-01-06T00:59:07.777Z,8.00
2023-01-06T01:01:37.216Z,8.00
2023-01-06T01:04:06.187Z,8.00
2023-01-06T01:06:36.515Z,8.00
2023-01-06T01:09:06.508Z,8.10
2023-01-06T01:11:52.583Z,8.10
2023-01-06T01:14:22.387Z,8.10
2023-01-06T01:16:50.912Z,8.20
2023-01-06T01:19:19.977Z,8.20
2023-01-06T01:21:50.395Z,8.20
2023-01-06T01:24:19.280Z,8.30
2023-01-06T01:26:48.368Z,8.30
2023-01-06T01:29:18.858Z,8.40
2023-01-06T01:31:47.729Z,8.40
2023-01-06T01:34:17.583Z,8.40
2023-01-06T01:36:47.596Z,8.40
2023-01-06T01:39:24.883Z,8.40
2023-01-06T01:41:54.203Z,8.40
2023-01-06T01:44:54.079Z,8.40
2023-01-06T01:47:28.094Z,8.40
2023-01-06T01:49:59.967Z,8.40
2023-01-06T01:52:29.836Z,8.50
2023-01-06T01:54:59.743Z,8.40
2023-01-06T01:57:31.681Z,8.40
2023-01-06T02:00:01.134Z,8.50
2023-01-06T02:02:32.613Z,8.50
2023-01-06T02:05:03.143Z,8.60
2023-01-06T02:07:32.045Z,8.60
2023-01-06T02:10:09.327Z,8.60
2023-01-06T02:12:38.188Z,8.60
2023-01-06T02:15:16.777Z,8.60
2023-01-06T02:18:08.523Z,8.70
2023-01-06T02:21:04.659Z,8.70
2023-01-06T02:24:08.995Z,8.70
2023-01-06T02:27:17.652Z,8.70
2023-01-06T02:30:24.620Z,8.70
2023-01-06T02:33:12.434Z,8.70
2023-01-06T02:35:55.784Z,8.70
2023-01-06T02:38:35.947Z,8.80
2023-01-06T02:41:15.138Z,8.80
2023-01-06T02:43:52.774Z,8.80
2023-01-06T02:46:32.658Z,8.90
2023-01-06T02:49:13.664Z,8.90
2023-01-06T02:51:51.122Z,8.90
2023-01-06T02:54:27.255Z,8.90
2023-01-06T02:57:14.274Z,8.90
2023-01-06T02:59:50.545Z,8.90
2023-01-06T03:02:20.384Z,9.00
2023-01-06T03:04:53.262Z,9.00
2023-01-06T03:07:22.814Z,9.00
2023-01-06T03:09:54.626Z,9.00
2023-01-06T03:12:30.016Z,9.00
2023-01-06T03:14:58.614Z,9.10
2023-01-06T03:17:27.953Z,9.00
2023-01-06T03:19:58.347Z,9.10
2023-01-06T03:22:27.965Z,9.10
2023-01-06T03:24:56.533Z,9.10
2023-01-06T03:27:27.572Z,9.20
2023-01-06T03:29:56.317Z,9.20
2023-01-06T03:32:29.607Z,9.20
2023-01-06T03:35:17.204Z,9.20
2023-01-06T03:37:53.505Z,9.20
2023-01-06T03:40:33.297Z,9.30
2023-01-06T03:43:12.273Z,9.30
2023-01-06T03:45:54.320Z,9.30
2023-01-06T03:48:32.298Z,9.30
2023-01-06T03:51:08.910Z,9.30
2023-01-06T03:53:42.506Z,9.40
2023-01-06T03:56:18.284Z,9.40
2023-01-06T03:58:50.467Z,9.40
2023-01-06T04:01:19.170Z,9.40
2023-01-06T04:03:48.472Z,9.40
2023-01-06T04:06:18.366Z,9.40
2023-01-06T04:08:46.890Z,9.40
2023-01-06T04:11:29.158Z,9.50
2023-01-06T04:13:57.584Z,9.50
2023-01-06T04:16:26.206Z,9.40
2023-01-06T04:18:54.797Z,9.50
2023-01-06T04:21:24.709Z,9.50
2023-01-06T04:23:53.114Z,9.50
2023-01-06T04:26:21.890Z,9.50
2023-01-06T04:28:50.345Z,9.60
2023-01-06T04:31:19.390Z,9.60
2023-01-06T04:33:48.264Z,9.60
2023-01-06T04:36:16.705Z,9.60
2023-01-06T04:38:46.564Z,9.60
2023-01-06T04:41:15.873Z,9.60
2023-01-06T04:43:44.355Z,9.60
2023-01-06T04:46:13.246Z,9.60
2023-01-06T04:48:41.792Z,9.70
2023-01-06T04:51:12.017Z,9.70
2023-01-06T04:53:42.124Z,9.70
2023-01-06T04:56:13.776Z,9.70
2023-01-06T04:58:42.235Z,9.70
2023-01-06T05:01:13.070Z,9.70
2023-01-06T05:03:42.051Z,9.70
2023-01-06T05:06:13.087Z,9.80
2023-01-06T05:08:43.083Z,9.70
2023-01-06T05:11:14.954Z,9.70
2023-01-06T05:13:44.198Z,9.70
2023-01-06T05:16:15.966Z,9.80
2023-01-06T05:18:44.897Z,9.80
2023-01-06T05:21:13.944Z,9.80
2023-01-06T05:23:42.690Z,9.80
2023-01-06T05:26:17.398Z,9.80
2023-01-06T05:28:45.956Z,9.80
2023-01-06T05:31:14.480Z,9.80
2023-01-06T05:33:43.105Z,9.80
2023-01-06T05:36:13.556Z,9.80
2023-01-06T05:38:42.065Z,9.80
2023-01-06T05:41:10.532Z,9.80
2023-01-06T05:43:40.605Z,9.80
2023-01-06T05:46:10.177Z,9.90
2023-01-06T05:48:39.497Z,9.80
2023-01-06T05:51:09.535Z,9.80
2023-01-06T05:53:41.170Z,9.90
2023-01-06T05:56:11.247Z,9.90
2023-01-06T05:58:41.656Z,9.90
2023-01-06T06:01:17.502Z,9.90
2023-01-06T06:03:46.200Z,9.90
2023-01-06T06:06:14.904Z,9.90
2023-01-06T06:08:43.726Z,9.90
2023-01-06T06:11:14.184Z,9.90
2023-01-06T06:13:48.872Z,9.90
2023-01-06T06:16:19.552Z,9.90
2023-01-06T06:18:51.803Z,9.90
2023-01-06T06:21:22.359Z,9.90
2023-01-06T06:23:51.555Z,9.90
2023-01-06T06:26:20.055Z,9.90
2023-01-06T06:28:50.050Z,9.80
2023-01-06T06:31:20.935Z,9.90
2023-01-06T06:33:51.657Z,9.80
2023-01-06T06:36:20.543Z,9.80
2023-01-06T06:38:51.245Z,9.90
2023-01-06T06:41:20.070Z,9.90
2023-01-06T06:43:50.050Z,9.90
2023-01-06T06:46:19.059Z,9.80
2023-01-06T06:48:47.550Z,9.80
2023-01-06T06:51:17.830Z,9.80
2023-01-06T06:53:46.809Z,9.90
2023-01-06T06:56:16.277Z,9.80
2023-01-06T06:58:44.923Z,9.80
2023-01-06T07:01:16.306Z,9.80
2023-01-06T07:03:45.288Z,9.80
2023-01-06T07:06:15.935Z,9.80
2023-01-06T07:08:48.214Z,9.80
2023-01-06T07:11:16.708Z,9.80
2023-01-06T07:13:45.406Z,9.80
2023-01-06T07:16:15.416Z,9.80
2023-01-06T07:18:44.093Z,9.80
2023-01-06T07:21:12.575Z,9.80
2023-01-06T07:23:41.339Z,9.80
2023-01-06T07:26:11.919Z,9.80
2023-01-06T07:28:40.437Z,9.80
2023-01-06T07:31:09.035Z,9.80
2023-01-06T07:33:39.049Z,9.70
2023-01-06T07:36:08.504Z,9.70
2023-01-06T07:38:40.010Z,9.70
2023-01-06T07:41:08.486Z,9.70
2023-01-06T07:43:37.994Z,9.60
2023-01-06T07:46:06.719Z,9.60
2023-01-06T07:48:35.251Z,9.60
2023-01-06T07:51:05.359Z,9.60
2023-01-06T07:53:33.997Z,9.60
2023-01-06T07:56:02.575Z,9.60
2023-01-06T07:58:30.994Z,9.60
2023-01-06T08:00:59.554Z,9.60
2023-01-06T08:03:28.081Z,9.60
2023-01-06T08:05:56.540Z,9.60
2023-01-06T08:08:26.467Z,9.60
2023-01-06T08:10:55.176Z,9.60
2023-01-06T08:13:23.633Z,9.60
2023-01-06T08:15:52.681Z,9.60
2023-01-06T08:18:21.400Z,9.60
2023-01-06T08:20:49.895Z,9.60
2023-01-06T08:23:18.967Z,9.60
2023-01-06T08:25:48.991Z,9.60
2023-01-06T08:28:17.424Z,9.60
2023-01-06T08:30:45.868Z,9.60
2023-01-06T08:33:15.019Z,9.60
2023-01-06T08:35:47.035Z,9.60
2023-01-06T08:38:15.556Z,9.60
2023-01-06T08:40:44.009Z,9.60
2023-01-06T08:43:13.933Z,9.70
2023-01-06T08:45:43.554Z,9.70
2023-01-06T08:48:12.087Z,9.60
2023-01-06T08:50:41.121Z,9.70
2023-01-06T08:53:10.004Z,9.60
2023-01-06T08:55:40.094Z,9.60
2023-01-06T08:58:09.993Z,9.60
2023-01-06T09:00:42.500Z,9.60
2023-01-06T09:03:11.628Z,9.60
2023-01-06T09:05:40.174Z,9.60
2023-01-06T09:08:08.700Z,9.60
2023-01-06T09:10:39.173Z,9.60
2023-01-06T09:13:07.649Z,9.60
2023-01-06T09:15:36.275Z,9.60
2023-01-06T09:18:06.344Z,9.60
2023-01-06T09:20:34.831Z,9.60
2023-01-06T09:23:03.324Z,9.60
2023-01-06T09:25:32.148Z,9.60
2023-01-06T09:28:01.878Z,9.60
2023-01-06T09:30:30.363Z,9.60
2023-01-06T09:32:58.885Z,9.60
2023-01-06T09:35:28.874Z,9.70
2023-01-06T09:37:57.449Z,9.70
2023-01-06T09:40:30.815Z,9.70
2023-01-06T09:43:11.586Z,9.70
2023-01-06T09:45:45.874Z,9.70
2023-01-06T09:48:18.348Z,9.70
2023-01-06T09:50:53.126Z,9.70
2023-01-06T09:53:23.985Z,9.80
2023-01-06T09:55:58.142Z,9.60
2023-01-06T09:58:32.600Z,9.60
2023-01-06T10:01:06.322Z,9.80
2023-01-06T10:03:35.040Z,10.00
2023-01-06T10:06:18.525Z,9.90
2023-01-06T10:08:56.102Z,9.80
2023-01-06T10:11:34.016Z,9.70
2023-01-06T10:14:12.209Z,9.50
2023-01-06T10:16:53.674Z,9.30
2023-01-06T10:19:31.787Z,9.30
2023-01-06T10:22:10.483Z,9.20
2023-01-06T10:24:50.196Z,9.10
2023-01-06T10:27:27.271Z,9.10
2023-01-06T10:30:01.442Z,9.00
2023-01-06T10:32:35.501Z,8.90
2023-01-06T10:35:04.425Z,8.90
2023-01-06T10:37:41.080Z,9.00
2023-01-06T10:40:19.554Z,9.00
2023-01-06T10:43:00.496Z,9.00
2023-01-06T10:45:38.319Z,9.00
2023-01-06T10:48:09.604Z,9.10
2023-01-06T10:50:38.727Z,9.20
2023-01-06T10:53:08.605Z,9.30
2023-01-06T10:55:41.747Z,9.60
2023-01-06T10:58:26.906Z,10.10
2023-01-06T11:00:57.893Z,10.50
2023-01-06T11:03:35.070Z,10.50
2023-01-06T11:06:10.044Z,10.70
2023-01-06T11:08:41.028Z,11.00
2023-01-06T11:11:27.755Z,11.00
2023-01-06T11:13:58.966Z,10.90
2023-01-06T11:16:29.708Z,10.70
2023-01-06T11:19:01.242Z,10.50
2023-01-06T11:21:41.275Z,10.40
2023-01-06T11:24:23.414Z,10.30
2023-01-06T11:26:56.680Z,10.20
2023-01-06T11:29:32.083Z,10.10
2023-01-06T11:32:05.365Z,10.10
2023-01-06T11:34:34.282Z,10.00
2023-01-06T11:37:02.897Z,10.00
2023-01-06T11:39:36.322Z,10.10
2023-01-06T11:42:11.115Z,10.20
2023-01-06T11:44:41.502Z,10.20
2023-01-06T11:47:15.958Z,10.10
2023-01-06T11:49:49.802Z,10.10
2023-01-06T11:52:24.827Z,10.10
2023-01-06T11:55:03.436Z,10.10
2023-01-06T11:57:44.126Z,10.00
2023-01-06T12:00:35.785Z,10.00
2023-01-06T12:03:11.992Z,10.10
2023-01-06T12:05:48.325Z,9.90
2023-01-06T12:08:21.222Z,9.80
2023-01-06T12:10:52.853Z,9.70
2023-01-06T12:13:21.487Z,9.70
2023-01-06T12:15:58.178Z,9.70
2023-01-06T12:18:30.810Z,9.70
2023-01-06T12:21:01.798Z,9.70
2023-01-06T12:23:34.514Z,9.70
2023-01-06T12:26:10.535Z,9.70
2023-01-06T12:28:41.932Z,9.80
2023-01-06T12:31:16.746Z,9.80
2023-01-06T12:33:51.589Z,9.70
2023-01-06T12:36:26.416Z,9.80
2023-01-06T12:38:57.849Z,9.90
2023-01-06T12:41:33.336Z,9.90
2023-01-06T12:44:11.195Z,9.90
2023-01-06T12:46:47.035Z,9.80
2023-01-06T12:49:22.774Z,9.90
2023-01-06T12:51:55.414Z,9.90
2023-01-06T12:54:29.156Z,9.90
2023-01-06T12:57:18.157Z,9.80
2023-01-06T12:59:58.873Z,9.80
2023-01-06T13:02:54.054Z,9.80
2023-01-06T13:05:48.624Z,9.70
2023-01-06T13:08:26.826Z,9.50
2023-01-06T13:11:07.304Z,9.30
2023-01-06T13:13:53.887Z,9.20
2023-01-06T13:16:31.623Z,9.10
2023-01-06T13:19:11.795Z,9.10
2023-01-06T13:21:42.003Z,9.00
2023-01-06T13:24:35.032Z,9.00
2023-01-06T13:27:19.589Z,9.00
2023-01-06T13:30:00.291Z,8.90
2023-01-06T13:32:41.137Z,8.90
2023-01-06T13:35:32.341Z,9.00
2023-01-06T13:38:18.418Z,9.00
2023-01-06T13:40:50.332Z,9.00
2023-01-06T13:43:23.027Z,9.00
2023-01-06T13:45:58.998Z,9.00
2023-01-06T13:48:32.112Z,9.00
2023-01-06T13:51:01.222Z,9.00
2023-01-06T13:53:40.033Z,9.10
2023-01-06T13:56:29.371Z,9.10
2023-01-06T13:59:19.894Z,9.00
2023-01-06T14:01:49.938Z,9.00
2023-01-06T14:04:47.441Z,9.10
2023-01-06T14:07:16.663Z,9.10
2023-01-06T14:09:50.577Z,9.10
2023-01-06T14:12:23.065Z,9.10
2023-01-06T14:15:00.632Z,9.10
2023-01-06T14:17:40.319Z,9.10
2023-01-06T14:20:23.901Z,9.10
2023-01-06T14:23:04.481Z,9.10
2023-01-06T14:25:40.809Z,9.10
2023-01-06T14:28:25.403Z,9.00
2023-01-06T14:31:47.596Z,9.10
2023-01-06T14:34:20.487Z,9.10
2023-01-06T14:36:54.645Z,9.00
2023-01-06T14:39:27.828Z,9.00
2023-01-06T14:42:04.111Z,9.00
2023-01-06T14:44:44.383Z,9.00
2023-01-06T14:47:18.459Z,9.00
2023-01-06T14:50:00.519Z,9.00
2023-01-06T14:52:36.682Z,9.00
2023-01-06T14:55:11.163Z,9.00
2023-01-06T14:57:42.402Z,8.90
2023-01-06T15:00:18.682Z,8.90
2023-01-06T15:02:49.542Z,8.90
2023-01-06T15:05:23.524Z,8.90
2023-01-06T15:08:00.513Z,8.90
2023-01-06T15:10:30.683Z,8.90
2023-01-06T15:12:59.763Z,8.90
2023-01-06T15:15:30.713Z,8.90
2023-01-06T15:18:05.132Z,8.80
2023-01-06T15:20:38.100Z,8.80
2023-01-06T15:23:07.691Z,8.80
2023-01-06T15:25:40.651Z,8.80
2023-01-06T15:28:24.200Z,8.80
2023-01-06T15:30:56.984Z,8.80
2023-01-06T15:33:27.544Z,8.70
2023-01-06T15:36:01.862Z,8.70
2023-01-06T15:38:36.107Z,8.70
2023-01-06T15:41:27.358Z,8.70
2023-01-06T15:43:58.819Z,8.70
2023-01-06T15:46:38.561Z,8.70
2023-01-06T15:49:08.143Z,8.70
2023-01-06T15:51:38.426Z,8.60
2023-01-06T15:54:18.712Z,8.60
2023-01-06T15:56:47.472Z,8.70
2023-01-06T15:59:17.058Z,8.70
2023-01-06T16:01:55.999Z,8.70
2023-01-06T16:04:26.014Z,8.70
2023-01-06T16:06:58.116Z,8.70
2023-01-06T16:09:36.057Z,8.70
2023-01-06T16:12:19.012Z,8.70
2023-01-06T16:14:49.593Z,8.70
2023-01-06T16:17:34.744Z,8.80
2023-01-06T16:20:08.277Z,8.80
2023-01-06T16:22:43.350Z,8.80
2023-01-06T16:25:25.546Z,8.80
2023-01-06T16:27:56.378Z,8.80
2023-01-06T16:30:27.472Z,8.80
2023-01-06T16:32:57.317Z,8.80
2023-01-06T16:35:28.765Z,8.80
2023-01-06T16:38:03.237Z,8.80
2023-01-06T16:40:37.660Z,8.80
2023-01-06T16:43:06.236Z,8.80
2023-01-06T16:45:39.197Z,8.80
2023-01-06T16:48:10.304Z,8.70
2023-01-06T16:50:47.098Z,8.70
2023-01-06T16:53:21.894Z,8.60
2023-01-06T16:55:56.782Z,8.60
2023-01-06T16:58:26.945Z,8.60
2023-01-06T17:00:58.475Z,8.60
2023-01-06T17:03:33.705Z,8.60
2023-01-06T17:06:04.509Z,8.50
2023-01-06T17:08:38.702Z,8.50
2023-01-06T17:11:14.318Z,8.50
2023-01-06T17:13:54.226Z,8.50
2023-01-06T17:16:27.622Z,8.50
2023-01-06T17:18:59.638Z,8.40
2023-01-06T17:21:31.488Z,8.40
2023-01-06T17:24:11.775Z,8.30
2023-01-06T17:26:41.047Z,8.30
2023-01-06T17:29:15.876Z,8.20
2023-01-06T17:31:47.051Z,8.20
2023-01-06T17:34:18.985Z,8.10
2023-01-06T17:36:49.208Z,8.10
2023-01-06T17:39:29.384Z,8.10
2023-01-06T17:42:25.331Z,8.00
2023-01-06T17:44:59.923Z,8.00
2023-01-06T17:47:33.842Z,7.90
2023-01-06T17:50:03.382Z,7.90
2023-01-06T17:52:34.415Z,7.90
2023-01-06T17:55:44.901Z,7.80
2023-01-06T17:58:18.514Z,7.80
2023-01-06T18:00:48.165Z,7.70
2023-01-06T18:03:23.692Z,7.70
2023-01-06T18:06:16.658Z,7.60
2023-01-06T18:08:46.223Z,7.60
2023-01-06T18:11:29.705Z,7.60
2023-01-06T18:14:08.195Z,7.60
2023-01-06T18:16:41.010Z,7.60
2023-01-06T18:19:27.174Z,7.60
2023-01-06T18:22:00.000Z,7.60
2023-01-06T18:24:39.603Z,7.60
2023-01-06T18:27:18.867Z,7.60
2023-01-06T18:29:47.613Z,7.60
2023-01-06T18:32:37.466Z,7.50
2023-01-06T18:35:13.340Z,7.50
2023-01-06T18:37:47.632Z,7.50
2023-01-06T18:40:21.398Z,7.50
2023-01-06T18:42:56.792Z,7.50
2023-01-06T18:45:30.412Z,7.40
2023-01-06T18:48:02.035Z,7.30
2023-01-06T18:50:38.294Z,7.30
2023-01-06T18:53:25.506Z,7.30
2023-01-06T18:55:56.963Z,7.20
2023-01-06T18:58:47.268Z,7.20
2023-01-06T19:01:24.178Z,7.30
2023-01-06T19:04:09.314Z,7.30
2023-01-06T19:06:43.518Z,7.30
2023-01-06T19:09:27.640Z,7.30
2023-01-06T19:12:18.448Z,7.30
2023-01-06T19:14:53.897Z,7.30
2023-01-06T19:17:27.501Z,7.30
2023-01-06T19:20:01.566Z,7.30
2023-01-06T19:22:34.184Z,7.30
2023-01-06T19:25:06.549Z,7.30
2023-01-06T19:27:45.720Z,7.30
2023-01-06T19:30:49.240Z,7.30
2023-01-06T19:33:43.288Z,7.30
2023-01-06T19:36:38.787Z,7.20
2023-01-06T19:39:30.872Z,7.20
2023-01-06T19:42:19.094Z,7.20
2023-01-06T19:44:54.407Z,7.20
2023-01-06T19:47:28.198Z,7.20
2023-01-06T19:50:00.101Z,7.20
2023-01-06T19:52:34.078Z,7.20
2023-01-06T19:55:21.358Z,7.20
2023-01-06T19:57:52.918Z,7.10
2023-01-06T20:00:27.707Z,7.10
2023-01-06T20:03:05.038Z,7.10
2023-01-06T20:05:34.884Z,7.10
2023-01-06T20:08:08.311Z,7.10
2023-01-06T20:10:40.061Z,7.10
2023-01-06T20:13:11.029Z,7.00
2023-01-06T20:15:45.844Z,7.00
2023-01-06T20:18:16.258Z,7.00
2023-01-06T20:20:45.410Z,7.00
2023-01-06T20:23:18.764Z,7.00
2023-01-06T20:25:50.947Z,6.90
2023-01-06T20:28:19.795Z,6.90
2023-01-06T20:30:48.472Z,6.90
2023-01-06T20:33:21.099Z,6.90
2023-01-06T20:35:52.807Z,6.90
2023-01-06T20:38:24.721Z,6.90
2023-01-06T20:40:53.305Z,6.90
2023-01-06T20:43:29.851Z,6.90
2023-01-06T20:45:59.005Z,6.90
2023-01-06T20:48:34.714Z,6.90
2023-01-06T20:51:03.726Z,6.80
2023-01-06T20:53:34.984Z,6.80
2023-01-06T20:56:06.303Z,6.80
2023-01-06T20:58:36.793Z,6.80
2023-01-06T21:01:10.225Z,6.80
2023-01-06T21:03:42.759Z,6.70
2023-01-06T21:06:11.233Z,6.50
2023-01-06T21:08:41.849Z,6.50
2023-01-06T21:11:11.125Z,6.40
2023-01-06T21:13:45.856Z,6.30
2023-01-06T21:16:16.735Z,6.40
2023-01-06T21:18:47.561Z,6.40
2023-01-06T21:21:17.545Z,6.40
2023-01-06T21:23:48.008Z,6.40
2023-01-06T21:26:18.217Z,6.40
2023-01-06T21:28:52.396Z,6.30
2023-01-06T21:31:21.474Z,6.30
2023-01-06T21:33:53.215Z,6.30
2023-01-06T21:36:29.136Z,6.30
2023-01-06T21:39:00.820Z,6.40
2023-01-06T21:41:46.833Z,6.30
2023-01-06T21:44:17.732Z,6.30
2023-01-06T21:46:48.721Z,6.30
2023-01-06T21:49:18.749Z,6.30
2023-01-06T21:51:49.557Z,6.20
2023-01-06T21:54:28.831Z,6.20
2023-01-06T21:57:00.495Z,6.10
2023-01-06T21:59:33.526Z,5.90
2023-01-06T22:02:04.964Z,5.90
2023-01-06T22:04:37.923Z,5.80
2023-01-06T22:07:11.053Z,5.70
2023-01-06T22:09:45.885Z,5.60
2023-01-06T22:12:16.925Z,5.50
2023-01-06T22:14:48.606Z,5.40
2023-01-06T22:17:19.462Z,5.20
2023-01-06T22:19:50.415Z,5.20
2023-01-06T22:22:19.263Z,5.10
2023-01-06T22:24:48.046Z,5.00
2023-01-06T22:27:16.535Z,4.90
2023-01-06T22:29:44.963Z,4.90
2023-01-06T22:32:13.358Z,4.80
2023-01-06T22:34:41.890Z,4.80
2023-01-06T22:37:11.715Z,4.90
2023-01-06T22:39:40.145Z,4.80
2023-01-06T22:42:08.625Z,4.70
2023-01-06T22:44:37.073Z,4.70
2023-01-06T22:47:06.067Z,4.60
2023-01-06T22:49:34.590Z,4.50
2023-01-06T22:52:03.031Z,4.40
2023-01-06T22:54:32.864Z,4.40
2023-01-06T22:57:01.338Z,4.40
2023-01-06T22:59:29.796Z,4.20
2023-01-06T23:01:58.342Z,4.20
2023-01-06T23:04:26.864Z,4.10
2023-01-06T23:06:55.295Z,4.10
2023-01-06T23:09:23.926Z,4.10
2023-01-06T23:11:53.866Z,4.10
2023-01-06T23:14:25.464Z,4.00
2023-01-06T23:16:53.908Z,4.00
2023-01-06T23:19:22.553Z,4.00
2023-01-06T23:21:51.032Z,4.10
2023-01-06T23:24:19.529Z,4.10
2023-01-06T23:26:48.952Z,4.10
2023-01-06T23:29:18.785Z,4.30
2023-01-06T23:31:48.162Z,4.30
2023-01-06T23:34:18.066Z,4.30
2023-01-06T23:36:47.121Z,4.40
2023-01-06T23:39:17.423Z,4.50
2023-01-06T23:41:46.023Z,4.50
2023-01-06T23:44:17.665Z,4.50
2023-01-06T23:46:48.251Z,4.50
2023-01-06T23:49:18.143Z,4.50
2023-01-06T23:51:46.690Z,4.60
2023-01-06T23:54:15.637Z,4.60
2023-01-06T23:56:44.143Z,4.70
2023-01-06T23:59:13.741Z,4.80
